sensor_id;sensor_type;location;lat;lon;timestamp;pressure;altitude;pressure_sealevel;temperature;humidity
42771;BME280;28426;42.872;25.314;2023-04-01T00:02:07;96002.56;;;6.65;72.57
42771;BME280;28426;42.872;25.314;2023-04-01T00:04:38;96009.88;;;6.63;71.81
42771;BME280;28426;42.872;25.314;2023-04-01T00:07:09;96016.09;;;6.56;71.55
42771;BME280;28426;42.872;25.314;2023-04-01T00:09:40;96018.50;;;6.50;71.89
42771;BME280;28426;42.872;25.314;2023-04-01T00:12:11;96017.94;;;6.55;72.06
42771;BME280;28426;42.872;25.314;2023-04-01T00:14:42;96011.63;;;6.56;72.43
42771;BME280;28426;42.872;25.314;2023-04-01T00:17:15;96017.06;;;6.70;72.35
42771;BME280;28426;42.872;25.314;2023-04-01T00:19:46;96015.59;;;6.82;71.54
42771;BME280;28426;42.872;25.314;2023-04-01T00:22:17;96014.88;;;6.95;71.12
42771;BME280;28426;42.872;25.314;2023-04-01T00:24:48;96010.41;;;6.96;70.46
42771;BME280;28426;42.872;25.314;2023-04-01T00:27:19;96012.22;;;6.95;70.15
42771;BME280;28426;42.872;25.314;2023-04-01T00:29:50;96011.91;;;6.83;70.22
42771;BME280;28426;42.872;25.314;2023-04-01T00:32:24;96013.03;;;6.74;70.32
42771;BME280;28426;42.872;25.314;2023-04-01T00:34:55;96001.53;;;6.66;70.87
42771;BME280;28426;42.872;25.314;2023-04-01T00:37:26;96004.91;;;6.75;71.43
42771;BME280;28426;42.872;25.314;2023-04-01T00:39:57;96007.50;;;6.90;70.63
42771;BME280;28426;42.872;25.314;2023-04-01T00:42:29;96000.13;;;7.07;69.88
42771;BME280;28426;42.872;25.314;2023-04-01T00:45:33;95989.81;;;7.19;69.44
42771;BME280;28426;42.872;25.314;2023-04-01T00:48:11;95975.75;;;7.26;68.68
42771;BME280;28426;42.872;25.314;2023-04-01T00:50:46;95983.41;;;7.36;68.42
42771;BME280;28426;42.872;25.314;2023-04-01T00:53:19;95967.06;;;7.32;67.57
42771;BME280;28426;42.872;25.314;2023-04-01T00:55:54;95973.47;;;7.44;67.51
42771;BME280;28426;42.872;25.314;2023-04-01T00:58:29;95963.44;;;7.40;67.31
42771;BME280;28426;42.872;25.314;2023-04-01T01:01:02;95967.44;;;7.29;67.18
42771;BME280;28426;42.872;25.314;2023-04-01T01:03:35;95966.06;;;7.11;67.72
42771;BME280;28426;42.872;25.314;2023-04-01T01:06:24;95959.00;;;6.97;68.51
42771;BME280;28426;42.872;25.314;2023-04-01T01:09:07;95963.66;;;6.94;69.23
42771;BME280;28426;42.872;25.314;2023-04-01T01:11:43;95957.25;;;7.04;68.94
42771;BME280;28426;42.872;25.314;2023-04-01T01:14:26;95960.00;;;7.17;68.04
42771;BME280;28426;42.872;25.314;2023-04-01T01:17:05;95955.19;;;7.28;67.59
42771;BME280;28426;42.872;25.314;2023-04-01T01:19:52;95958.13;;;7.40;67.19
42771;BME280;28426;42.872;25.314;2023-04-01T01:22:43;95958.53;;;7.43;67.26
42771;BME280;28426;42.872;25.314;2023-04-01T01:25:29;95950.88;;;7.27;68.66
42771;BME280;28426;42.872;25.314;2023-04-01T01:28:17;95946.63;;;7.04;69.67
42771;BME280;28426;42.872;25.314;2023-04-01T01:30:57;95948.28;;;6.83;70.63
42771;BME280;28426;42.872;25.314;2023-04-01T01:33:42;95953.25;;;6.71;70.80
42771;BME280;28426;42.872;25.314;2023-04-01T01:36:21;95950.03;;;6.54;72.30
42771;BME280;28426;42.872;25.314;2023-04-01T01:38:52;95944.22;;;6.44;72.36
42771;BME280;28426;42.872;25.314;2023-04-01T01:41:25;95936.47;;;6.27;72.75
42771;BME280;28426;42.872;25.314;2023-04-01T01:43:59;95949.56;;;6.13;73.73
42771;BME280;28426;42.872;25.314;2023-04-01T01:46:32;95941.91;;;5.88;73.61
42771;BME280;28426;42.872;25.314;2023-04-01T01:49:04;95935.09;;;5.64;73.89
42771;BME280;28426;42.872;25.314;2023-04-01T01:51:39;95939.66;;;5.40;75.24
42771;BME280;28426;42.872;25.314;2023-04-01T01:54:13;95943.66;;;5.36;77.75
42771;BME280;28426;42.872;25.314;2023-04-01T01:56:46;95942.13;;;5.42;78.69
42771;BME280;28426;42.872;25.314;2023-04-01T01:59:20;95933.16;;;5.43;78.52
42771;BME280;28426;42.872;25.314;2023-04-01T02:01:53;95932.16;;;5.44;78.70
42771;BME280;28426;42.872;25.314;2023-04-01T02:04:27;95942.22;;;5.48;78.15
42771;BME280;28426;42.872;25.314;2023-04-01T02:07:03;95944.03;;;5.48;78.53
42771;BME280;28426;42.872;25.314;2023-04-01T02:09:35;95938.91;;;5.61;78.12
42771;BME280;28426;42.872;25.314;2023-04-01T02:12:07;95926.50;;;5.77;77.35
42771;BME280;28426;42.872;25.314;2023-04-01T02:14:42;95928.75;;;5.95;76.79
42771;BME280;28426;42.872;25.314;2023-04-01T02:17:16;95927.94;;;6.10;75.87
42771;BME280;28426;42.872;25.314;2023-04-01T02:19:50;95924.66;;;6.23;75.23
42771;BME280;28426;42.872;25.314;2023-04-01T02:22:29;95923.13;;;6.35;74.86
42771;BME280;28426;42.872;25.314;2023-04-01T02:25:05;95922.66;;;6.47;74.19
42771;BME280;28426;42.872;25.314;2023-04-01T02:27:39;95916.81;;;6.58;73.59
42771;BME280;28426;42.872;25.314;2023-04-01T02:30:12;95904.47;;;6.65;73.45
42771;BME280;28426;42.872;25.314;2023-04-01T02:32:43;95905.38;;;6.73;73.08
42771;BME280;28426;42.872;25.314;2023-04-01T02:35:15;95916.66;;;6.82;72.42
42771;BME280;28426;42.872;25.314;2023-04-01T02:37:50;95906.91;;;6.89;71.92
42771;BME280;28426;42.872;25.314;2023-04-01T02:40:22;95914.94;;;6.96;71.56
42771;BME280;28426;42.872;25.314;2023-04-01T02:42:53;95916.19;;;7.00;71.66
42771;BME280;28426;42.872;25.314;2023-04-01T02:45:24;95902.47;;;6.96;71.00
42771;BME280;28426;42.872;25.314;2023-04-01T02:47:55;95903.97;;;7.05;70.75
42771;BME280;28426;42.872;25.314;2023-04-01T02:50:27;95907.88;;;7.10;70.55
42771;BME280;28426;42.872;25.314;2023-04-01T02:53:00;95906.44;;;7.07;70.09
42771;BME280;28426;42.872;25.314;2023-04-01T02:55:34;95902.19;;;7.13;69.96
42771;BME280;28426;42.872;25.314;2023-04-01T02:58:05;95907.94;;;7.16;69.80
42771;BME280;28426;42.872;25.314;2023-04-01T03:00:36;95888.50;;;7.09;69.56
42771;BME280;28426;42.872;25.314;2023-04-01T03:03:08;95899.59;;;7.19;69.57
42771;BME280;28426;42.872;25.314;2023-04-01T03:05:40;95895.13;;;7.20;69.52
42771;BME280;28426;42.872;25.314;2023-04-01T03:08:14;95890.63;;;7.20;69.31
42771;BME280;28426;42.872;25.314;2023-04-01T03:10:45;95886.94;;;7.22;69.36
42771;BME280;28426;42.872;25.314;2023-04-01T03:13:15;95882.47;;;7.22;69.02
42771;BME280;28426;42.872;25.314;2023-04-01T03:15:46;95881.25;;;7.25;68.95
42771;BME280;28426;42.872;25.314;2023-04-01T03:18:17;95876.78;;;7.25;68.81
42771;BME280;28426;42.872;25.314;2023-04-01T03:20:48;95878.59;;;7.25;68.23
42771;BME280;28426;42.872;25.314;2023-04-01T03:23:21;95874.31;;;7.24;68.37
42771;BME280;28426;42.872;25.314;2023-04-01T03:25:52;95879.63;;;7.24;68.23
42771;BME280;28426;42.872;25.314;2023-04-01T03:28:23;95878.69;;;7.10;69.06
42771;BME280;28426;42.872;25.314;2023-04-01T03:30:54;95873.94;;;6.98;69.42
42771;BME280;28426;42.872;25.314;2023-04-01T03:33:25;95880.59;;;6.87;69.63
42771;BME280;28426;42.872;25.314;2023-04-01T03:35:56;95873.16;;;6.76;70.29
42771;BME280;28426;42.872;25.314;2023-04-01T03:38:30;95869.75;;;6.60;70.84
42771;BME280;28426;42.872;25.314;2023-04-01T03:41:01;95883.38;;;6.57;71.11
42771;BME280;28426;42.872;25.314;2023-04-01T03:43:32;95883.31;;;6.50;71.87
42771;BME280;28426;42.872;25.314;2023-04-01T03:46:04;95888.19;;;6.47;71.88
42771;BME280;28426;42.872;25.314;2023-04-01T03:48:35;95882.81;;;6.40;72.33
42771;BME280;28426;42.872;25.314;2023-04-01T03:51:07;95883.00;;;6.38;72.18
42771;BME280;28426;42.872;25.314;2023-04-01T03:53:40;95885.03;;;6.36;72.69
42771;BME280;28426;42.872;25.314;2023-04-01T03:56:11;95879.09;;;6.34;72.42
42771;BME280;28426;42.872;25.314;2023-04-01T03:58:42;95876.44;;;6.34;72.41
42771;BME280;28426;42.872;25.314;2023-04-01T04:01:14;95868.63;;;6.26;71.91
42771;BME280;28426;42.872;25.314;2023-04-01T04:03:46;95868.94;;;6.16;71.72
42771;BME280;28426;42.872;25.314;2023-04-01T04:06:18;95869.25;;;6.06;77.06
42771;BME280;28426;42.872;25.314;2023-04-01T04:08:53;95875.16;;;6.08;74.96
42771;BME280;28426;42.872;25.314;2023-04-01T04:11:24;95866.78;;;6.05;75.33
42771;BME280;28426;42.872;25.314;2023-04-01T04:13:55;95861.91;;;6.08;74.61
42771;BME280;28426;42.872;25.314;2023-04-01T04:16:26;95873.16;;;6.10;73.78
42771;BME280;28426;42.872;25.314;2023-04-01T04:19:00;95876.25;;;5.99;74.86
42771;BME280;28426;42.872;25.314;2023-04-01T04:21:31;95866.41;;;6.08;75.00
42771;BME280;28426;42.872;25.314;2023-04-01T04:24:06;95869.25;;;6.06;76.02
42771;BME280;28426;42.872;25.314;2023-04-01T04:26:56;95863.44;;;6.18;75.08
42771;BME280;28426;42.872;25.314;2023-04-01T04:29:28;95881.78;;;6.19;74.08
42771;BME280;28426;42.872;25.314;2023-04-01T04:31:59;95873.34;;;6.09;73.61
42771;BME280;28426;42.872;25.314;2023-04-01T04:34:31;95873.59;;;5.99;77.82
42771;BME280;28426;42.872;25.314;2023-04-01T04:37:01;95874.97;;;6.10;76.68
42771;BME280;28426;42.872;25.314;2023-04-01T04:39:38;95870.03;;;6.07;74.27
42771;BME280;28426;42.872;25.314;2023-04-01T04:42:09;95876.25;;;6.14;75.70
42771;BME280;28426;42.872;25.314;2023-04-01T04:44:40;95872.66;;;6.22;75.15
42771;BME280;28426;42.872;25.314;2023-04-01T04:47:11;95873.78;;;6.34;75.51
42771;BME280;28426;42.872;25.314;2023-04-01T04:49:43;95866.75;;;6.41;74.57
42771;BME280;28426;42.872;25.314;2023-04-01T04:52:14;95868.00;;;6.46;73.43
42771;BME280;28426;42.872;25.314;2023-04-01T04:54:48;95847.31;;;6.34;71.93
42771;BME280;28426;42.872;25.314;2023-04-01T04:57:19;95856.50;;;6.38;76.09
42771;BME280;28426;42.872;25.314;2023-04-01T04:59:54;95851.78;;;6.56;74.45
42771;BME280;28426;42.872;25.314;2023-04-01T05:02:49;95854.59;;;6.76;74.15
42771;BME280;28426;42.872;25.314;2023-04-01T05:05:20;95846.97;;;6.94;72.88
42771;BME280;28426;42.872;25.314;2023-04-01T05:07:51;95842.16;;;7.05;72.37
42771;BME280;28426;42.872;25.314;2023-04-01T05:10:24;95835.34;;;7.24;70.91
42771;BME280;28426;42.872;25.314;2023-04-01T05:12:55;95843.00;;;7.48;68.32
42771;BME280;28426;42.872;25.314;2023-04-01T05:15:26;95845.66;;;7.48;67.70
42771;BME280;28426;42.872;25.314;2023-04-01T05:17:58;95834.88;;;7.56;70.46
42771;BME280;28426;42.872;25.314;2023-04-01T05:20:29;95823.41;;;7.49;69.35
42771;BME280;28426;42.872;25.314;2023-04-01T05:23:01;95844.53;;;7.70;69.90
42771;BME280;28426;42.872;25.314;2023-04-01T05:25:37;95833.53;;;7.74;69.00
42771;BME280;28426;42.872;25.314;2023-04-01T05:28:09;95828.59;;;7.70;70.98
42771;BME280;28426;42.872;25.314;2023-04-01T05:30:43;95835.78;;;7.77;70.05
42771;BME280;28426;42.872;25.314;2023-04-01T05:33:25;95824.31;;;7.69;69.51
42771;BME280;28426;42.872;25.314;2023-04-01T05:35:56;95826.91;;;7.56;68.02
42771;BME280;28426;42.872;25.314;2023-04-01T05:38:27;95836.97;;;7.61;71.15
42771;BME280;28426;42.872;25.314;2023-04-01T05:41:02;95823.88;;;7.59;70.33
42771;BME280;28426;42.872;25.314;2023-04-01T05:43:37;95824.94;;;7.71;71.27
42771;BME280;28426;42.872;25.314;2023-04-01T05:46:28;95814.13;;;7.80;68.47
42771;BME280;28426;42.872;25.314;2023-04-01T05:49:18;95824.75;;;7.80;67.28
42771;BME280;28426;42.872;25.314;2023-04-01T05:51:50;95820.69;;;7.84;70.43
42771;BME280;28426;42.872;25.314;2023-04-01T05:54:21;95817.47;;;7.95;70.49
42771;BME280;28426;42.872;25.314;2023-04-01T05:56:55;95814.22;;;8.07;69.67
42771;BME280;28426;42.872;25.314;2023-04-01T05:59:26;95809.75;;;8.21;68.20
42771;BME280;28426;42.872;25.314;2023-04-01T06:01:59;95802.81;;;8.33;68.24
42771;BME280;28426;42.872;25.314;2023-04-01T06:04:34;95801.59;;;8.49;66.38
42771;BME280;28426;42.872;25.314;2023-04-01T06:07:11;95805.28;;;8.48;67.80
42771;BME280;28426;42.872;25.314;2023-04-01T06:09:44;95808.16;;;8.40;70.17
42771;BME280;28426;42.872;25.314;2023-04-01T06:12:27;95797.50;;;8.40;69.06
42771;BME280;28426;42.872;25.314;2023-04-01T06:15:11;95806.09;;;8.42;67.34
42771;BME280;28426;42.872;25.314;2023-04-01T06:18:01;95810.16;;;8.38;69.51
42771;BME280;28426;42.872;25.314;2023-04-01T06:20:40;95798.94;;;8.49;66.86
42771;BME280;28426;42.872;25.314;2023-04-01T06:23:28;95811.84;;;8.66;68.33
42771;BME280;28426;42.872;25.314;2023-04-01T06:26:21;95808.38;;;8.72;68.19
42771;BME280;28426;42.872;25.314;2023-04-01T06:29:25;95807.72;;;8.90;68.84
42771;BME280;28426;42.872;25.314;2023-04-01T06:35:21;95816.97;;;8.61;67.76
42771;BME280;28426;42.872;25.314;2023-04-01T06:38:17;95829.66;;;8.72;69.57
42771;BME280;28426;42.872;25.314;2023-04-01T06:41:29;95820.25;;;8.76;71.48
42771;BME280;28426;42.872;25.314;2023-04-01T06:44:14;95824.94;;;8.88;71.13
42771;BME280;28426;42.872;25.314;2023-04-01T06:47:20;95812.47;;;8.82;68.84
42771;BME280;28426;42.872;25.314;2023-04-01T06:50:23;95815.53;;;8.85;70.01
42771;BME280;28426;42.872;25.314;2023-04-01T06:53:18;95801.19;;;8.93;69.45
42771;BME280;28426;42.872;25.314;2023-04-01T06:56:30;95790.09;;;9.10;68.54
42771;BME280;28426;42.872;25.314;2023-04-01T06:59:11;95775.53;;;9.19;67.33
42771;BME280;28426;42.872;25.314;2023-04-01T07:01:47;95772.06;;;9.25;68.62
42771;BME280;28426;42.872;25.314;2023-04-01T07:04:25;95756.63;;;9.41;67.07
42771;BME280;28426;42.872;25.314;2023-04-01T07:06:59;95749.06;;;9.38;67.47
42771;BME280;28426;42.872;25.314;2023-04-01T07:09:34;95752.94;;;9.42;69.82
42771;BME280;28426;42.872;25.314;2023-04-01T07:12:43;95762.75;;;9.55;64.77
42771;BME280;28426;42.872;25.314;2023-04-01T07:15:37;95763.63;;;9.81;67.43
42771;BME280;28426;42.872;25.314;2023-04-01T07:18:14;95753.03;;;10.06;63.52
42771;BME280;28426;42.872;25.314;2023-04-01T07:20:49;95754.22;;;10.43;64.32
42771;BME280;28426;42.872;25.314;2023-04-01T07:23:24;95745.88;;;10.83;63.34
42771;BME280;28426;42.872;25.314;2023-04-01T07:26:19;95733.81;;;11.18;62.25
42771;BME280;28426;42.872;25.314;2023-04-01T07:28:59;95726.00;;;11.35;61.03
42771;BME280;28426;42.872;25.314;2023-04-01T07:31:49;95715.75;;;11.51;60.34
42771;BME280;28426;42.872;25.314;2023-04-01T07:34:25;95723.78;;;11.51;59.08
42771;BME280;28426;42.872;25.314;2023-04-01T07:37:06;95727.63;;;11.55;60.58
42771;BME280;28426;42.872;25.314;2023-04-01T07:39:47;95727.28;;;11.63;59.62
42771;BME280;28426;42.872;25.314;2023-04-01T07:42:43;95721.31;;;11.80;60.93
42771;BME280;28426;42.872;25.314;2023-04-01T07:45:22;95701.03;;;11.91;60.27
42771;BME280;28426;42.872;25.314;2023-04-01T07:48:10;95707.28;;;12.15;59.49
42771;BME280;28426;42.872;25.314;2023-04-01T07:50:47;95699.88;;;11.99;54.45
42771;BME280;28426;42.872;25.314;2023-04-01T07:53:31;95704.16;;;11.57;56.13
42771;BME280;28426;42.872;25.314;2023-04-01T07:56:10;95703.34;;;11.07;56.83
42771;BME280;28426;42.872;25.314;2023-04-01T07:58:52;95684.50;;;10.83;55.66
42771;BME280;28426;42.872;25.314;2023-04-01T08:01:50;95693.38;;;10.96;53.93
42771;BME280;28426;42.872;25.314;2023-04-01T08:04:31;95688.44;;;11.18;51.70
42771;BME280;28426;42.872;25.314;2023-04-01T08:07:13;95698.09;;;11.50;50.32
42771;BME280;28426;42.872;25.314;2023-04-01T08:10:12;95677.50;;;11.81;49.81
42771;BME280;28426;42.872;25.314;2023-04-01T08:13:12;95699.16;;;12.22;48.38
42771;BME280;28426;42.872;25.314;2023-04-01T08:16:09;95668.94;;;12.58;47.11
42771;BME280;28426;42.872;25.314;2023-04-01T08:18:58;95660.31;;;12.79;46.65
42771;BME280;28426;42.872;25.314;2023-04-01T08:21:35;95668.72;;;13.12;46.45
42771;BME280;28426;42.872;25.314;2023-04-01T08:24:13;95660.63;;;13.36;45.19
42771;BME280;28426;42.872;25.314;2023-04-01T08:26:56;95647.78;;;13.50;44.98
42771;BME280;28426;42.872;25.314;2023-04-01T08:29:38;95644.97;;;13.57;45.14
42771;BME280;28426;42.872;25.314;2023-04-01T08:32:15;95642.28;;;13.57;44.41
42771;BME280;28426;42.872;25.314;2023-04-01T08:34:52;95633.19;;;13.46;44.50
42771;BME280;28426;42.872;25.314;2023-04-01T08:37:36;95635.56;;;13.42;44.71
42771;BME280;28426;42.872;25.314;2023-04-01T08:40:37;95642.34;;;13.33;44.17
42771;BME280;28426;42.872;25.314;2023-04-01T08:43:25;95635.97;;;13.22;44.74
42771;BME280;28426;42.872;25.314;2023-04-01T08:46:14;95638.81;;;13.15;44.21
42771;BME280;28426;42.872;25.314;2023-04-01T08:49:04;95637.97;;;13.27;44.95
42771;BME280;28426;42.872;25.314;2023-04-01T08:52:01;95638.13;;;13.49;43.94
42771;BME280;28426;42.872;25.314;2023-04-01T08:54:55;95628.97;;;13.33;44.17
42771;BME280;28426;42.872;25.314;2023-04-01T09:01:20;95615.63;;;12.68;44.03
42771;BME280;28426;42.872;25.314;2023-04-01T09:04:14;95623.44;;;12.69;43.73
42771;BME280;28426;42.872;25.314;2023-04-01T09:06:55;95612.25;;;12.73;43.69
42771;BME280;28426;42.872;25.314;2023-04-01T09:12:52;95614.69;;;12.86;42.21
42771;BME280;28426;42.872;25.314;2023-04-01T09:15:41;95597.69;;;12.80;41.68
42771;BME280;28426;42.872;25.314;2023-04-01T09:21:29;95601.19;;;13.39;43.04
42771;BME280;28426;42.872;25.314;2023-04-01T09:27:17;95598.63;;;14.08;42.62
42771;BME280;28426;42.872;25.314;2023-04-01T09:36:44;95604.44;;;15.23;40.97
42771;BME280;28426;42.872;25.314;2023-04-01T09:39:35;95605.25;;;15.51;39.49
42771;BME280;28426;42.872;25.314;2023-04-01T09:42:33;95604.97;;;15.75;39.40
42771;BME280;28426;42.872;25.314;2023-04-01T09:45:25;95605.09;;;15.91;38.28
42771;BME280;28426;42.872;25.314;2023-04-01T09:48:20;95610.56;;;16.01;38.59
42771;BME280;28426;42.872;25.314;2023-04-01T09:51:03;95611.69;;;16.05;39.03
42771;BME280;28426;42.872;25.314;2023-04-01T09:53:47;95607.94;;;16.06;37.87
42771;BME280;28426;42.872;25.314;2023-04-01T09:59:49;95601.75;;;16.06;37.91
42771;BME280;28426;42.872;25.314;2023-04-01T10:02:59;95604.69;;;16.04;39.22
42771;BME280;28426;42.872;25.314;2023-04-01T10:06:26;95606.84;;;16.02;38.73
42771;BME280;28426;42.872;25.314;2023-04-01T10:15:38;95589.63;;;16.03;37.78
42771;BME280;28426;42.872;25.314;2023-04-01T10:24:40;95558.09;;;15.99;37.52
42771;BME280;28426;42.872;25.314;2023-04-01T10:27:47;95546.59;;;16.08;37.96
42771;BME280;28426;42.872;25.314;2023-04-01T10:31:04;95535.41;;;16.27;37.93
42771;BME280;28426;42.872;25.314;2023-04-01T10:36:56;95531.84;;;16.70;37.70
42771;BME280;28426;42.872;25.314;2023-04-01T10:43:52;95519.63;;;17.16;36.96
42771;BME280;28426;42.872;25.314;2023-04-01T10:50:24;95509.44;;;17.70;36.54
42771;BME280;28426;42.872;25.314;2023-04-01T10:56:39;95503.66;;;18.34;36.93
42771;BME280;28426;42.872;25.314;2023-04-01T10:59:59;95506.03;;;18.56;34.20
42771;BME280;28426;42.872;25.314;2023-04-01T11:09:44;95489.16;;;18.85;34.38
42771;BME280;28426;42.872;25.314;2023-04-01T11:12:42;95484.78;;;19.05;35.07
42771;BME280;28426;42.872;25.314;2023-04-01T11:15:31;95480.81;;;19.32;36.15
42771;BME280;28426;42.872;25.314;2023-04-01T11:24:19;95472.28;;;20.38;35.71
42771;BME280;28426;42.872;25.314;2023-04-01T11:27:21;95459.19;;;20.70;35.34
42771;BME280;28426;42.872;25.314;2023-04-01T11:30:14;95443.91;;;20.98;35.55
42771;BME280;28426;42.872;25.314;2023-04-01T11:32:54;95442.72;;;21.24;34.35
42771;BME280;28426;42.872;25.314;2023-04-01T11:35:59;95435.34;;;21.43;31.21
42771;BME280;28426;42.872;25.314;2023-04-01T11:42:00;95423.44;;;21.59;32.94
42771;BME280;28426;42.872;25.314;2023-04-01T11:44:33;95414.16;;;21.46;31.40
42771;BME280;28426;42.872;25.314;2023-04-01T11:50:35;95418.72;;;20.54;31.46
42771;BME280;28426;42.872;25.314;2023-04-01T11:53:17;95427.75;;;20.25;33.04
42771;BME280;28426;42.872;25.314;2023-04-01T11:56:09;95406.25;;;19.80;33.42
42771;BME280;28426;42.872;25.314;2023-04-01T12:01:48;95388.38;;;19.25;35.23
42771;BME280;28426;42.872;25.314;2023-04-01T12:07:37;95383.66;;;19.06;36.59
42771;BME280;28426;42.872;25.314;2023-04-01T12:10:18;95390.16;;;19.00;37.21
42771;BME280;28426;42.872;25.314;2023-04-01T12:12:57;95382.75;;;18.76;38.57
42771;BME280;28426;42.872;25.314;2023-04-01T12:15:36;95399.84;;;18.61;38.55
42771;BME280;28426;42.872;25.314;2023-04-01T12:18:15;95380.28;;;18.34;39.30
42771;BME280;28426;42.872;25.314;2023-04-01T12:20:50;95385.47;;;18.20;39.84
42771;BME280;28426;42.872;25.314;2023-04-01T12:23:46;95386.31;;;18.00;40.32
42771;BME280;28426;42.872;25.314;2023-04-01T12:26:39;95377.19;;;17.85;41.26
42771;BME280;28426;42.872;25.314;2023-04-01T12:29:41;95373.69;;;17.80;41.33
42771;BME280;28426;42.872;25.314;2023-04-01T12:32:20;95378.56;;;17.77;42.63
42771;BME280;28426;42.872;25.314;2023-04-01T12:35:04;95379.41;;;17.68;42.36
42771;BME280;28426;42.872;25.314;2023-04-01T12:37:51;95383.22;;;17.56;42.71
42771;BME280;28426;42.872;25.314;2023-04-01T12:40:51;95382.16;;;17.42;43.34
42771;BME280;28426;42.872;25.314;2023-04-01T12:43:43;95382.69;;;17.38;43.68
42771;BME280;28426;42.872;25.314;2023-04-01T12:46:24;95360.06;;;17.24;43.30
42771;BME280;28426;42.872;25.314;2023-04-01T12:49:19;95362.78;;;17.24;43.23
42771;BME280;28426;42.872;25.314;2023-04-01T12:52:04;95368.69;;;17.16;44.17
42771;BME280;28426;42.872;25.314;2023-04-01T12:55:03;95361.97;;;17.13;43.92
42771;BME280;28426;42.872;25.314;2023-04-01T13:01:22;95360.03;;;16.98;44.62
42771;BME280;28426;42.872;25.314;2023-04-01T13:07:21;95350.34;;;16.71;45.90
42771;BME280;28426;42.872;25.314;2023-04-01T13:10:01;95344.41;;;16.74;46.09
42771;BME280;28426;42.872;25.314;2023-04-01T13:12:48;95344.94;;;16.86;45.76
42771;BME280;28426;42.872;25.314;2023-04-01T13:15:28;95337.41;;;16.89;45.34
42771;BME280;28426;42.872;25.314;2023-04-01T13:18:17;95339.56;;;16.97;44.90
42771;BME280;28426;42.872;25.314;2023-04-01T13:20:54;95331.75;;;16.95;45.17
42771;BME280;28426;42.872;25.314;2023-04-01T13:23:34;95335.78;;;17.03;45.29
42771;BME280;28426;42.872;25.314;2023-04-01T13:26:14;95323.41;;;17.12;45.27
42771;BME280;28426;42.872;25.314;2023-04-01T13:28:50;95318.31;;;17.21;45.48
42771;BME280;28426;42.872;25.314;2023-04-01T13:31:35;95307.78;;;17.20;45.16
42771;BME280;28426;42.872;25.314;2023-04-01T13:34:21;95318.59;;;17.15;45.45
42771;BME280;28426;42.872;25.314;2023-04-01T13:36:57;95313.72;;;17.06;45.82
42771;BME280;28426;42.872;25.314;2023-04-01T13:39:46;95308.31;;;17.01;45.71
42771;BME280;28426;42.872;25.314;2023-04-01T13:42:24;95316.94;;;16.93;46.53
42771;BME280;28426;42.872;25.314;2023-04-01T13:45:00;95321.25;;;16.94;46.13
42771;BME280;28426;42.872;25.314;2023-04-01T13:48:18;95311.56;;;16.93;46.39
42771;BME280;28426;42.872;25.314;2023-04-01T13:51:18;95311.53;;;16.82;46.46
42771;BME280;28426;42.872;25.314;2023-04-01T13:54:00;95312.63;;;16.71;47.57
42771;BME280;28426;42.872;25.314;2023-04-01T13:56:38;95309.13;;;16.70;46.85
42771;BME280;28426;42.872;25.314;2023-04-01T13:59:34;95303.47;;;16.56;47.20
42771;BME280;28426;42.872;25.314;2023-04-01T14:02:21;95310.19;;;16.54;47.16
42771;BME280;28426;42.872;25.314;2023-04-01T14:05:13;95311.25;;;16.47;47.33
42771;BME280;28426;42.872;25.314;2023-04-01T14:08:07;95303.44;;;16.51;47.32
42771;BME280;28426;42.872;25.314;2023-04-01T14:10:43;95295.66;;;16.55;48.75
42771;BME280;28426;42.872;25.314;2023-04-01T14:13:23;95289.44;;;16.49;48.64
42771;BME280;28426;42.872;25.314;2023-04-01T14:16:13;95314.19;;;16.46;49.70
42771;BME280;28426;42.872;25.314;2023-04-01T14:19:03;95377.19;;;16.45;51.31
42771;BME280;28426;42.872;25.314;2023-04-01T14:21:41;95395.72;;;16.26;51.67
42771;BME280;28426;42.872;25.314;2023-04-01T14:27:49;95516.69;;;15.34;58.37
42771;BME280;28426;42.872;25.314;2023-04-01T14:30:32;95533.66;;;14.85;61.82
42771;BME280;28426;42.872;25.314;2023-04-01T14:33:21;95573.22;;;14.33;63.90
42771;BME280;28426;42.872;25.314;2023-04-01T14:36:04;95594.94;;;13.80;66.44
42771;BME280;28426;42.872;25.314;2023-04-01T14:38:46;95609.72;;;13.36;65.71
42771;BME280;28426;42.872;25.314;2023-04-01T14:41:24;95616.84;;;12.89;68.27
42771;BME280;28426;42.872;25.314;2023-04-01T14:44:23;95620.53;;;12.59;68.59
42771;BME280;28426;42.872;25.314;2023-04-01T14:47:21;95608.34;;;12.15;74.32
42771;BME280;28426;42.872;25.314;2023-04-01T14:50:05;95624.69;;;11.95;73.07
42771;BME280;28426;42.872;25.314;2023-04-01T14:52:39;95634.84;;;11.74;74.89
42771;BME280;28426;42.872;25.314;2023-04-01T14:55:31;95616.66;;;11.52;76.24
42771;BME280;28426;42.872;25.314;2023-04-01T14:58:10;95605.38;;;11.38;76.46
42771;BME280;28426;42.872;25.314;2023-04-01T15:00:53;95597.63;;;11.49;76.96
42771;BME280;28426;42.872;25.314;2023-04-01T15:03:30;95590.97;;;11.40;76.16
42771;BME280;28426;42.872;25.314;2023-04-01T15:06:38;95568.53;;;11.29;77.45
42771;BME280;28426;42.872;25.314;2023-04-01T15:09:17;95563.28;;;11.22;77.38
42771;BME280;28426;42.872;25.314;2023-04-01T15:12:01;95594.63;;;11.15;81.43
42771;BME280;28426;42.872;25.314;2023-04-01T15:14:50;95588.81;;;11.18;80.50
42771;BME280;28426;42.872;25.314;2023-04-01T15:17:47;95587.94;;;11.05;79.97
42771;BME280;28426;42.872;25.314;2023-04-01T15:20:33;95600.22;;;10.94;80.56
42771;BME280;28426;42.872;25.314;2023-04-01T15:23:17;95581.75;;;10.93;81.40
42771;BME280;28426;42.872;25.314;2023-04-01T15:26:07;95560.19;;;10.94;81.54
42771;BME280;28426;42.872;25.314;2023-04-01T15:28:50;95542.16;;;10.90;79.38
42771;BME280;28426;42.872;25.314;2023-04-01T15:31:31;95514.56;;;10.96;79.61
42771;BME280;28426;42.872;25.314;2023-04-01T15:34:28;95487.94;;;10.77;75.03
42771;BME280;28426;42.872;25.314;2023-04-01T15:37:06;95490.66;;;10.21;74.23
42771;BME280;28426;42.872;25.314;2023-04-01T15:39:51;95479.81;;;9.78;75.65